Time;durP1;ratioP1;P1;durP2;ratioP2;P2;SDS_P1;SDS_P2;PMS_P1;PMS_P2;Temp;Humidity;BMP_temperature;BMP_pressure;BME280_temperature;BME280_humidity;BME280_pressure;Samples;Min_cycle;Max_cycle;Signal;HPM_P1;HPM_P2
2023/12/22 00:00:04;;;;;;;20.73;16.63;;;;;;;19.91;42.03;99603.50;4618539;31;20073;-56
2023/12/22 00:02:31;;;;;;;18.95;17.02;;;;;;;19.91;42.05;99602.69;4618800;31;20056;-56
2023/12/22 00:04:59;;;;;;;17.75;15.85;;;;;;;19.90;41.85;99588.41;4620427;30;20070;-56
2023/12/22 00:07:26;;;;;;;16.20;14.55;;;;;;;19.89;41.87;99575.13;4618469;31;20087;-56
2023/12/22 00:09:54;;;;;;;17.92;16.02;;;;;;;19.87;41.83;99572.63;4612489;31;20059;-57
2023/12/22 00:12:21;;;;;;;18.63;16.73;;;;;;;19.87;41.94;99545.75;4618788;31;20073;-57
2023/12/22 00:14:48;;;;;;;17.75;15.82;;;;;;;19.88;41.71;99535.84;4620365;30;20066;-57
2023/12/22 00:17:16;;;;;;;18.00;15.43;;;;;;;19.87;41.64;99531.50;4618338;31;20055;-59
2023/12/22 00:19:43;;;;;;;17.77;15.10;;;;;;;19.87;41.62;99501.94;4618419;31;20059;-59
2023/12/22 00:22:11;;;;;;;17.73;15.93;;;;;;;19.86;41.76;99511.03;4618550;31;20067;-59
2023/12/22 00:24:40;;;;;;;16.38;14.82;;;;;;;19.85;41.72;99518.25;4620638;31;20066;-59
2023/12/22 00:27:07;;;;;;;17.35;15.55;;;;;;;19.85;41.45;99502.13;4618545;31;20054;-56
2023/12/22 00:29:37;;;;;;;17.88;16.05;;;;;;;19.85;41.62;99506.63;4611313;31;20055;-55
2023/12/22 00:32:04;;;;;;;15.90;14.30;;;;;;;19.84;41.64;99505.81;4619133;31;20110;-56
2023/12/22 00:34:32;;;;;;;16.67;14.98;;;;;;;19.84;41.37;99500.44;4619882;31;20420;-56
2023/12/22 00:37:00;;;;;;;18.67;16.08;;;;;;;19.83;41.39;99493.38;4618254;31;20052;-59
2023/12/22 00:39:27;;;;;;;15.30;13.80;;;;;;;19.84;41.49;99499.59;4618107;31;20063;-59
2023/12/22 00:41:54;;;;;;;15.27;13.70;;;;;;;19.83;41.33;99495.25;4618766;31;20064;-59
2023/12/22 00:44:22;;;;;;;16.60;14.80;;;;;;;19.83;41.41;99489.88;4619876;31;20051;-59
2023/12/22 00:46:49;;;;;;;15.98;14.25;;;;;;;19.83;41.32;99493.38;4618356;31;20059;-55
2023/12/22 00:49:18;;;;;;;15.55;13.85;;;;;;;19.82;41.46;99478.28;4618156;31;20055;-57
2023/12/22 00:51:45;;;;;;;13.50;12.18;;;;;;;19.81;41.30;99457.81;4619202;31;20077;-56
2023/12/22 00:54:12;;;;;;;15.20;13.70;;;;;;;19.81;41.29;99462.31;4619945;31;20056;-57
2023/12/22 00:56:40;;;;;;;15.10;13.50;;;;;;;19.81;41.41;99467.69;4622487;31;20051;-56
2023/12/22 00:59:07;;;;;;;15.02;13.43;;;;;;;19.81;41.19;99440.84;4618225;31;20056;-57
2023/12/22 01:01:38;;;;;;;14.32;12.88;;;;;;;19.81;41.28;99448.91;4619322;31;20048;-56
2023/12/22 01:04:06;;;;;;;14.50;13.00;;;;;;;19.79;41.38;99451.75;4619502;31;20063;-56
2023/12/22 01:06:37;;;;;;;13.95;12.48;;;;;;;19.79;41.25;99440.19;4618087;31;20059;-57
2023/12/22 01:09:05;;;;;;;14.57;13.07;;;;;;;19.79;41.25;99449.06;4618061;31;20060;-56
2023/12/22 01:11:32;;;;;;;13.98;12.45;;;;;;;19.78;41.28;99452.78;4619760;31;20504;-53
2023/12/22 01:14:00;;;;;;;14.85;12.98;;;;;;;19.78;41.16;99466.19;4618842;31;20059;-56
2023/12/22 01:16:27;;;;;;;12.95;11.65;;;;;;;19.78;41.36;99476.94;4617962;31;20059;-56
2023/12/22 01:18:55;;;;;;;14.80;12.32;;;;;;;19.79;41.10;99472.41;4618175;31;20148;-56
2023/12/22 01:21:22;;;;;;;13.45;12.05;;;;;;;19.76;41.20;99490.53;4619468;31;20451;-56
2023/12/22 01:23:50;;;;;;;13.52;11.93;;;;;;;19.76;41.34;99473.56;4618781;31;20063;-55
2023/12/22 01:26:17;;;;;;;12.63;11.25;;;;;;;19.77;41.16;99475.28;4617917;31;20059;-56
2023/12/22 01:28:44;;;;;;;13.90;12.23;;;;;;;19.76;41.23;99477.09;4617719;31;20056;-59
2023/12/22 01:31:12;;;;;;;12.52;11.10;;;;;;;19.75;41.32;99478.09;4619540;31;20067;-59
2023/12/22 01:33:39;;;;;;;12.30;11.10;;;;;;;19.75;41.27;99486.16;4618373;31;20520;-59
2023/12/22 01:36:07;;;;;;;12.32;11.02;;;;;;;19.75;41.35;99463.84;4617408;31;20052;-56
2023/12/22 01:38:34;;;;;;;12.43;11.05;;;;;;;19.74;41.35;99465.69;4617673;31;20051;-56
2023/12/22 01:41:01;;;;;;;12.90;11.20;;;;;;;19.74;41.25;99452.28;4618840;31;20425;-56
2023/12/22 01:43:29;;;;;;;12.90;11.27;;;;;;;19.75;41.18;99453.94;4618606;31;20082;-56
2023/12/22 01:45:59;;;;;;;12.23;10.60;;;;;;;19.73;41.26;99441.72;4618047;31;20064;-57
2023/12/22 01:48:28;;;;;;;10.93;9.90;;;;;;;19.73;41.35;99453.28;4620794;31;20398;-59
2023/12/22 01:50:59;;;;;;;12.70;11.02;;;;;;;19.73;41.35;99447.09;4635651;30;20429;-59
2023/12/22 01:53:28;;;;;;;12.18;10.40;;;;;;;19.72;41.40;99465.00;4620497;31;20055;-59
2023/12/22 01:55:56;;;;;;;13.90;10.07;;;;;;;19.72;41.28;99461.50;4620484;31;20063;-57
2023/12/22 01:58:25;;;;;;;11.50;10.30;;;;;;;19.72;41.35;99453.44;4620763;31;20060;-59
2023/12/22 02:00:54;;;;;;;12.20;10.82;;;;;;;19.72;41.28;99453.44;4623116;31;20055;-59
2023/12/22 02:03:22;;;;;;;11.43;10.23;;;;;;;19.71;41.50;99446.41;4620499;31;20056;-59
2023/12/22 02:05:50;;;;;;;11.48;9.30;;;;;;;19.70;41.32;99453.63;4620239;31;20066;-59
2023/12/22 02:08:18;;;;;;;10.70;9.60;;;;;;;19.69;41.21;99440.38;4620483;31;20432;-55
2023/12/22 02:10:45;;;;;;;12.77;10.13;;;;;;;19.69;41.29;99426.94;4624567;31;20059;-55
2023/12/22 02:13:13;;;;;;;10.07;9.00;;;;;;;19.69;41.30;99433.16;4620410;31;20059;-56
2023/12/22 02:15:41;;;;;;;11.50;10.02;;;;;;;19.69;41.27;99429.63;4620595;31;20062;-55
2023/12/22 02:18:18;;;;;;;11.27;9.65;;;;;;;19.69;41.22;99435.84;4620476;31;20055;-59
2023/12/22 02:20:46;;;;;;;10.55;9.05;;;;;;;19.69;41.17;99451.94;4623045;31;20059;-59
2023/12/22 02:23:13;;;;;;;9.75;8.73;;;;;;;19.69;41.17;99453.78;4620060;31;20075;-59
2023/12/22 02:25:40;;;;;;;9.57;8.57;;;;;;;19.69;41.27;99441.19;4620353;31;20083;-59
2023/12/22 02:28:13;;;;;;;9.93;8.93;;;;;;;19.69;41.02;99454.63;4621286;31;20056;-59
2023/12/22 02:31:08;;;;;;;9.68;8.60;;;;;;;19.69;41.18;99449.25;4621684;31;20058;-59
2023/12/22 02:33:38;;;;;;;11.15;9.45;;;;;;;19.69;41.04;99440.38;4620388;31;20051;-59
2023/12/22 02:36:08;;;;;;;10.43;8.38;;;;;;;19.67;41.08;99435.16;4621759;31;20059;-59
2023/12/22 02:38:37;;;;;;;11.00;8.20;;;;;;;19.69;41.16;99432.31;4621051;31;20075;-59
2023/12/22 02:41:05;;;;;;;10.43;8.82;;;;;;;19.68;41.31;99425.25;4619214;31;20078;-59
2023/12/22 02:43:33;;;;;;;9.27;8.38;;;;;;;19.68;41.13;99431.44;4620122;31;20405;-59
2023/12/22 02:46:00;;;;;;;9.75;8.60;;;;;;;19.68;41.15;99439.50;4622280;31;20063;-58
2023/12/22 02:48:28;;;;;;;9.13;8.23;;;;;;;19.69;41.21;99435.00;4620327;31;20067;-59
2023/12/22 02:50:55;;;;;;;9.52;7.93;;;;;;;19.68;41.24;99435.97;4619666;31;20056;-59
2023/12/22 02:53:22;;;;;;;9.32;7.60;;;;;;;19.68;41.06;99435.97;4619543;31;20060;-59
2023/12/22 02:55:50;;;;;;;10.00;8.20;;;;;;;19.69;41.20;99445.75;4621852;31;20064;-59
2023/12/22 02:58:17;;;;;;;9.35;8.27;;;;;;;19.69;41.10;99435.00;4624053;31;20463;-59
2023/12/22 03:00:46;;;;;;;8.73;7.82;;;;;;;19.68;41.17;99441.34;4619646;31;20067;-59
2023/12/22 03:03:13;;;;;;;8.43;7.00;;;;;;;19.68;41.29;99439.50;4619942;31;20105;-59
2023/12/22 03:05:40;;;;;;;7.90;7.10;;;;;;;19.68;41.18;99428.75;4621613;31;20425;-59
2023/12/22 03:08:08;;;;;;;9.13;8.05;;;;;;;19.68;41.57;99434.13;4619839;31;20067;-59
2023/12/22 03:10:35;;;;;;;8.57;7.65;;;;;;;19.67;41.36;99432.47;4619766;31;20060;-60
2023/12/22 03:13:03;;;;;;;8.13;7.20;;;;;;;19.67;41.35;99423.56;4619395;31;20409;-59
2023/12/22 03:15:30;;;;;;;9.23;7.13;;;;;;;19.67;41.42;99421.72;4621520;31;20063;-59
2023/12/22 03:17:58;;;;;;;7.63;6.80;;;;;;;19.68;41.35;99422.56;4619936;31;20059;-59
2023/12/22 03:20:25;;;;;;;8.10;6.85;;;;;;;19.67;41.50;99421.72;4619199;31;20059;-59
2023/12/22 03:22:52;;;;;;;7.47;6.35;;;;;;;19.68;41.45;99419.88;4619114;31;20063;-59
2023/12/22 03:25:20;;;;;;;7.43;6.65;;;;;;;19.67;41.42;99424.41;4621176;31;20056;-59
2023/12/22 03:27:47;;;;;;;7.63;6.28;;;;;;;19.67;41.53;99426.25;4619893;31;20060;-58
2023/12/22 03:30:15;;;;;;;7.30;6.57;;;;;;;19.67;41.53;99443.19;4619051;31;20067;-59
2023/12/22 03:32:42;;;;;;;7.35;6.55;;;;;;;19.67;41.49;99442.38;4619355;31;20074;-59
2023/12/22 03:35:10;;;;;;;7.53;6.45;;;;;;;19.68;41.52;99457.47;4621153;31;20058;-59
2023/12/22 03:37:37;;;;;;;6.88;6.07;;;;;;;19.68;41.59;99452.09;4619059;30;20401;-55
2023/12/22 03:40:05;;;;;;;6.82;6.13;;;;;;;19.67;41.57;99447.72;4618901;31;20052;-54
2023/12/22 03:42:32;;;;;;;6.85;5.63;;;;;;;19.67;41.64;99450.41;4618563;31;20064;-51
2023/12/22 03:45:00;;;;;;;7.28;6.53;;;;;;;19.67;41.57;99448.56;4633826;30;20063;-58
2023/12/22 03:47:27;;;;;;;8.10;6.55;;;;;;;19.67;41.52;99437.00;4619601;31;20492;-53
2023/12/22 03:49:54;;;;;;;6.95;5.72;;;;;;;19.66;41.61;99438.84;4618708;31;20063;-53
2023/12/22 03:52:22;;;;;;;7.53;5.47;;;;;;;19.67;41.54;99421.72;4618790;31;20433;-55
2023/12/22 03:54:49;;;;;;;7.30;5.90;;;;;;;19.67;41.57;99416.34;4620903;31;20489;-55
2023/12/22 03:57:16;;;;;;;6.47;5.28;;;;;;;19.65;41.43;99410.31;4619705;31;20064;-53
2023/12/22 03:59:44;;;;;;;5.97;5.03;;;;;;;19.65;41.37;99417.53;4618829;31;20060;-55
2023/12/22 04:02:11;;;;;;;6.28;5.53;;;;;;;19.65;41.34;99415.69;4618790;31;20052;-54
2023/12/22 04:04:39;;;;;;;6.63;5.72;;;;;;;19.66;41.40;99422.72;4618902;31;20494;-54
2023/12/22 04:07:06;;;;;;;6.10;5.15;;;;;;;19.65;41.61;99418.38;4622789;31;20056;-56
2023/12/22 04:09:34;;;;;;;6.05;5.15;;;;;;;19.66;41.32;99414.69;4609807;31;20060;-54
2023/12/22 04:12:01;;;;;;;6.18;4.78;;;;;;;19.66;41.44;99411.16;4618400;31;20064;-56
2023/12/22 04:14:28;;;;;;;6.05;5.18;;;;;;;19.66;41.40;99405.78;4620380;31;20059;-55
2023/12/22 04:16:57;;;;;;;5.43;4.90;;;;;;;19.66;41.52;99417.38;4619166;31;20081;-55
2023/12/22 04:19:24;;;;;;;5.10;4.57;;;;;;;19.66;41.52;99430.78;4618351;31;20063;-55
2023/12/22 04:21:52;;;;;;;6.57;4.72;;;;;;;19.66;41.51;99421.91;4618211;31;20492;-56
2023/12/22 04:24:19;;;;;;;5.95;5.07;;;;;;;19.66;41.31;99421.91;4620171;31;20508;-55
2023/12/22 04:26:47;;;;;;;5.55;4.75;;;;;;;19.67;41.39;99413.66;4618936;31;20492;-59
2023/12/22 04:29:15;;;;;;;5.03;4.13;;;;;;;19.67;41.38;99423.56;4618525;31;20067;-59
2023/12/22 04:31:42;;;;;;;5.07;4.32;;;;;;;19.67;41.62;99426.25;4618558;31;20505;-59
2023/12/22 04:34:09;;;;;;;5.35;4.30;;;;;;;19.67;41.47;99428.94;4620228;31;20059;-59
2023/12/22 04:36:37;;;;;;;6.65;4.28;;;;;;;19.66;41.53;99421.91;4618614;31;20059;-56
2023/12/22 04:39:04;;;;;;;5.35;4.55;;;;;;;19.68;41.71;99435.97;4618023;31;20059;-56
2023/12/22 04:41:32;;;;;;;5.65;4.18;;;;;;;19.67;41.66;99445.88;4618147;31;20064;-52
2023/12/22 04:44:03;;;;;;;5.65;4.18;;;;;;;19.66;41.78;99454.97;4620048;31;20047;-54
2023/12/22 04:46:30;;;;;;;5.65;4.45;;;;;;;19.67;41.73;99459.31;4618892;31;20063;-59
2023/12/22 04:48:58;;;;;;;6.60;4.85;;;;;;;19.68;41.73;99457.47;4617885;31;20052;-59
2023/12/22 04:51:25;;;;;;;6.53;4.22;;;;;;;19.67;41.85;99458.47;4618084;31;20060;-59
2023/12/22 04:53:52;;;;;;;6.10;4.63;;;;;;;19.68;41.76;99465.50;4620255;31;20070;-59
2023/12/22 04:56:20;;;;;;;5.00;4.10;;;;;;;19.66;41.71;99473.75;4618272;31;20060;-55
2023/12/22 04:58:47;;;;;;;4.78;4.05;;;;;;;19.67;41.66;99483.47;4617923;31;20063;-56
2023/12/22 05:01:15;;;;;;;5.32;4.82;;;;;;;19.67;41.75;99488.84;4617983;31;20497;-53
2023/12/22 05:03:42;;;;;;;5.88;4.32;;;;;;;19.67;41.68;99496.91;4620157;31;20051;-54
2023/12/22 05:06:10;;;;;;;6.03;4.35;;;;;;;19.68;41.77;99500.41;4616831;31;20066;-55
2023/12/22 05:08:37;;;;;;;5.25;4.20;;;;;;;19.68;41.93;99508.47;4630156;30;20411;-56
2023/12/22 05:11:05;;;;;;;5.25;4.25;;;;;;;19.68;41.70;99512.00;4617912;31;20051;-56
2023/12/22 05:13:32;;;;;;;5.43;3.70;;;;;;;19.68;41.70;99509.31;4620246;31;20055;-53
2023/12/22 05:16:01;;;;;;;4.85;4.07;;;;;;;19.68;41.80;99511.16;4618193;31;20405;-58
2023/12/22 05:18:28;;;;;;;5.05;4.03;;;;;;;19.67;41.83;99509.50;4617604;31;20071;-59
2023/12/22 05:20:55;;;;;;;4.43;3.50;;;;;;;19.67;41.61;99522.91;4621583;31;20444;-59
2023/12/22 05:23:23;;;;;;;5.30;3.97;;;;;;;19.66;41.83;99530.13;4623193;31;20063;-57
2023/12/22 05:25:51;;;;;;;5.00;3.65;;;;;;;19.66;41.72;99543.56;4621273;31;20051;-59
2023/12/22 05:28:18;;;;;;;3.95;3.30;;;;;;;19.66;41.80;99553.47;4621220;31;20419;-59
2023/12/22 05:30:47;;;;;;;7.03;4.43;;;;;;;19.66;41.91;99548.94;4620949;31;20421;-59
2023/12/22 05:33:14;;;;;;;4.80;3.90;;;;;;;19.66;41.88;99551.59;4623863;31;20067;-59
2023/12/22 05:35:42;;;;;;;4.82;3.75;;;;;;;19.65;41.95;99555.31;4621008;31;20063;-59
2023/12/22 05:38:09;;;;;;;4.82;3.63;;;;;;;19.65;41.75;99566.03;4620728;31;20055;-60
2023/12/22 05:40:36;;;;;;;4.05;3.30;;;;;;;19.65;41.76;99557.16;4620751;31;20066;-58
2023/12/22 05:43:04;;;;;;;4.35;3.13;;;;;;;19.65;42.06;99566.03;4623244;31;20073;-59
2023/12/22 05:45:31;;;;;;;4.38;3.45;;;;;;;19.64;41.86;99558.97;4620947;31;20063;-59
2023/12/22 05:47:59;;;;;;;5.80;3.85;;;;;;;19.64;41.98;99572.41;4620913;31;20512;-59
2023/12/22 05:50:26;;;;;;;4.80;3.67;;;;;;;19.64;42.02;99575.09;4620721;31;20059;-59
2023/12/22 05:52:54;;;;;;;4.38;3.45;;;;;;;19.64;41.74;99583.13;4623224;31;20059;-59
2023/12/22 05:55:21;;;;;;;4.35;3.42;;;;;;;19.65;41.78;99581.31;4620671;31;20493;-59
2023/12/22 05:57:48;;;;;;;4.07;3.22;;;;;;;19.64;41.69;99575.09;4620755;31;20551;-59
2023/12/22 06:00:17;;;;;;;3.95;3.08;;;;;;;19.64;41.82;99575.09;4620826;31;20524;-59
2023/12/22 06:02:44;;;;;;;5.50;3.30;;;;;;;19.63;41.87;99578.78;4623202;31;20051;-59
2023/12/22 06:05:11;;;;;;;5.43;3.20;;;;;;;19.65;41.90;99589.38;4620216;31;20432;-59
2023/12/22 06:07:40;;;;;;;5.13;3.63;;;;;;;19.66;41.73;99583.00;4632993;30;20064;-55
2023/12/22 06:10:09;;;;;;;4.55;3.22;;;;;;;19.66;41.68;99573.09;4620724;31;20058;-55
2023/12/22 06:12:36;;;;;;;4.65;3.35;;;;;;;19.66;41.82;99575.78;4623096;31;20078;-56
2023/12/22 06:15:04;;;;;;;4.35;3.10;;;;;;;19.66;41.91;99575.78;4616298;31;20440;-55
2023/12/22 06:17:32;;;;;;;5.05;2.80;;;;;;;19.67;41.77;99582.81;4620352;31;20511;-55
2023/12/22 06:19:59;;;;;;;5.07;3.28;;;;;;;19.66;41.79;99574.94;4620542;31;20074;-55
2023/12/22 06:22:27;;;;;;;4.20;3.08;;;;;;;19.67;41.81;99581.97;4623003;31;20058;-56
2023/12/22 06:24:54;;;;;;;4.10;2.88;;;;;;;19.66;41.83;99575.78;4616070;31;20393;-54
2023/12/22 06:27:22;;;;;;;3.40;2.63;;;;;;;19.65;41.80;99576.78;4620049;31;20060;-56
2023/12/22 06:29:49;;;;;;;5.18;2.90;;;;;;;19.65;41.91;99579.47;4620082;31;20063;-55
2023/12/22 06:32:17;;;;;;;4.25;2.88;;;;;;;19.66;42.04;99581.16;4622318;31;20051;-56
2023/12/22 06:34:44;;;;;;;3.60;2.63;;;;;;;19.65;41.99;99568.72;4619596;31;20412;-54
2023/12/22 06:37:12;;;;;;;3.92;2.83;;;;;;;19.67;42.02;99571.25;4619869;31;20432;-59
2023/12/22 06:39:39;;;;;;;4.80;3.10;;;;;;;19.66;41.95;99574.94;4620013;31;20060;-59
2023/12/22 06:42:10;;;;;;;4.40;3.33;;;;;;;19.66;42.00;99572.25;4622505;31;20060;-59
2023/12/22 06:44:38;;;;;;;3.78;2.78;;;;;;;19.65;42.08;99576.78;4616862;31;20058;-58
2023/12/22 06:47:05;;;;;;;4.45;2.70;;;;;;;19.65;41.84;99571.41;4620646;31;20059;-53
2023/12/22 06:49:33;;;;;;;3.53;2.40;;;;;;;19.65;42.04;99568.72;4619988;31;20056;-54
2023/12/22 06:52:01;;;;;;;3.30;2.30;;;;;;;19.65;41.90;99568.72;4621784;31;20443;-54
2023/12/22 06:54:29;;;;;;;3.60;2.33;;;;;;;19.65;42.11;99566.03;4619440;31;20507;-55
2023/12/22 06:56:57;;;;;;;4.75;2.63;;;;;;;19.64;42.01;99566.19;4619581;31;20071;-58
2023/12/22 06:59:24;;;;;;;3.72;2.65;;;;;;;19.64;42.00;99572.41;4619638;31;20056;-59
2023/12/22 07:01:55;;;;;;;3.15;2.20;;;;;;;19.64;41.97;99580.44;4622094;31;20055;-58
2023/12/22 07:05:06;;;;;;;4.68;2.50;;;;;;;19.64;42.06;99588.50;4619613;31;20082;-59
2023/12/22 07:07:34;;;;;;;3.05;2.25;;;;;;;19.64;41.91;99574.25;4621664;31;20052;-55
2023/12/22 07:10:04;;;;;;;3.63;2.25;;;;;;;19.64;41.96;99583.13;4632516;30;20074;-53
2023/12/22 07:12:31;;;;;;;3.47;2.45;;;;;;;19.64;42.02;99590.34;4619618;31;20068;-55
2023/12/22 07:14:59;;;;;;;4.68;2.58;;;;;;;19.63;41.63;99602.09;4619704;31;20048;-59
2023/12/22 07:17:27;;;;;;;2.83;2.00;;;;;;;19.63;41.82;99616.38;4621929;31;20086;-58
2023/12/22 07:19:57;;;;;;;2.85;1.90;;;;;;;19.63;41.82;99612.84;4619461;31;20100;-59
2023/12/22 07:22:25;;;;;;;3.42;2.05;;;;;;;19.62;41.94;99625.44;4619164;31;20528;-59
2023/12/22 07:24:52;;;;;;;3.78;2.28;;;;;;;19.63;41.62;99635.16;4619148;31;20047;-59
2023/12/22 07:27:20;;;;;;;3.75;2.40;;;;;;;19.62;41.79;99641.53;4621946;31;20055;-54
2023/12/22 07:29:47;;;;;;;3.17;2.05;;;;;;;19.62;41.64;99638.84;4614751;31;20134;-55
2023/12/22 07:32:15;;;;;;;4.63;2.35;;;;;;;19.62;41.13;99646.91;4619168;31;20159;-54
2023/12/22 07:34:42;;;;;;;2.72;1.63;;;;;;;19.61;41.17;99650.59;4619189;31;20047;-55
2023/12/22 07:37:12;;;;;;;2.90;1.98;;;;;;;19.61;41.31;99661.34;4622288;31;20062;-59
2023/12/22 07:39:39;;;;;;;3.10;2.00;;;;;;;19.62;41.55;99663.03;4618964;31;20064;-60
2023/12/22 07:42:07;;;;;;;3.13;2.08;;;;;;;19.62;41.72;99659.50;4618754;31;20076;-58
2023/12/22 07:44:34;;;;;;;4.35;2.30;;;;;;;19.62;41.78;99652.28;4619000;31;20492;-58
2023/12/22 07:47:02;;;;;;;3.30;2.00;;;;;;;19.63;41.90;99664.69;4622362;30;20428;-54
2023/12/22 07:49:30;;;;;;;3.63;1.85;;;;;;;19.63;41.75;99667.38;4619099;31;20392;-52
2023/12/22 07:51:59;;;;;;;2.00;1.30;;;;;;;19.63;41.71;99678.13;4618631;31;20060;-56
2023/12/22 07:54:29;;;;;;;4.30;1.85;;;;;;;19.64;41.84;99685.16;4619427;31;20433;-56
2023/12/22 07:56:56;;;;;;;3.20;1.90;;;;;;;19.65;41.92;99680.66;4618555;31;20059;-63
2023/12/22 07:59:24;;;;;;;2.97;1.90;;;;;;;19.64;41.75;99682.47;4622212;31;20071;-64
2023/12/22 08:01:58;;;;;;;4.18;2.00;;;;;;;19.65;41.84;99696.78;4613577;31;20416;-64
2023/12/22 08:04:26;;;;;;;3.90;1.60;;;;;;;19.66;41.78;99703.81;4619641;31;20060;-64
2023/12/22 08:06:54;;;;;;;4.55;2.55;;;;;;;19.66;41.84;99693.91;4620276;31;20051;-65
2023/12/22 08:09:22;;;;;;;2.70;1.70;;;;;;;19.66;41.57;99699.28;4618300;31;20068;-65
2023/12/22 08:11:52;;;;;;;3.13;1.90;;;;;;;19.66;41.47;99695.75;4618507;31;20060;-64
2023/12/22 08:14:20;;;;;;;2.67;1.73;;;;;;;19.67;41.63;99692.91;4620052;31;20060;-64
2023/12/22 08:16:47;;;;;;;3.75;1.70;;;;;;;19.67;41.22;99705.50;4619394;31;20067;-55
2023/12/22 08:19:15;;;;;;;3.10;1.45;;;;;;;19.67;40.79;99709.00;4618300;31;20051;-56
2023/12/22 08:21:43;;;;;;;4.57;1.75;;;;;;;19.68;40.36;99718.75;4618199;31;20484;-57
2023/12/22 08:24:13;;;;;;;2.50;1.58;;;;;;;19.69;40.31;99728.50;4619830;31;20060;-57
2023/12/22 08:26:50;;;;;;;2.53;1.45;;;;;;;19.72;40.72;99725.47;4613639;31;20059;-57
2023/12/22 08:29:19;;;;;;;3.67;1.40;;;;;;;19.73;40.84;99727.19;4618184;31;20878;-56
2023/12/22 08:31:47;;;;;;;2.85;1.95;;;;;;;19.76;41.03;99734.88;4618061;31;20060;-55
2023/12/22 08:34:15;;;;;;;3.50;1.55;;;;;;;19.78;40.73;99742.81;4620770;31;20055;-57
2023/12/22 08:36:42;;;;;;;2.85;1.38;;;;;;;19.79;41.03;99747.16;4617795;31;20082;-64
2023/12/22 08:39:11;;;;;;;3.50;1.52;;;;;;;19.81;40.72;99761.28;4617696;31;20436;-64
2023/12/22 08:41:38;;;;;;;4.47;1.83;;;;;;;19.83;40.80;99763.81;4617456;31;20067;-64
2023/12/22 08:44:07;;;;;;;2.38;1.50;;;;;;;19.83;40.42;99769.16;4619331;31;20523;-64
2023/12/22 08:46:35;;;;;;;2.70;1.50;;;;;;;19.84;40.30;99770.84;4617463;31;20504;-64
2023/12/22 08:49:02;;;;;;;2.63;1.52;;;;;;;19.85;40.31;99772.53;4617496;31;20504;-64
2023/12/22 08:51:31;;;;;;;2.80;1.40;;;;;;;19.86;40.01;99793.88;4617751;31;20535;-64
2023/12/22 08:53:58;;;;;;;3.67;1.73;;;;;;;19.87;40.15;99794.72;4620117;31;20055;-64
2023/12/22 08:56:26;;;;;;;2.05;1.10;;;;;;;19.87;40.03;99786.66;4620796;31;20058;-57
2023/12/22 08:58:55;;;;;;;2.47;1.30;;;;;;;19.88;39.97;99791.84;4623105;31;20064;-57
2023/12/22 09:01:23;;;;;;;2.83;1.00;;;;;;;19.89;39.76;99801.63;4623340;31;20167;-57
2023/12/22 09:03:51;;;;;;;2.72;1.30;;;;;;;19.90;39.67;99799.75;4625350;31;20067;-56
2023/12/22 09:06:20;;;;;;;2.10;1.15;;;;;;;19.91;39.52;99785.31;4623178;31;20454;-63
2023/12/22 09:08:48;;;;;;;3.83;1.75;;;;;;;19.90;39.77;99797.91;4617432;31;20063;-63
2023/12/22 09:11:17;;;;;;;2.22;1.00;;;;;;;19.91;39.29;99796.06;4623967;31;20059;-63
2023/12/22 09:13:45;;;;;;;2.97;1.35;;;;;;;19.92;39.39;99787.84;4625048;31;20056;-64
2023/12/22 09:16:15;;;;;;;2.80;1.27;;;;;;;19.93;39.07;99789.53;4623061;31;20059;-57
2023/12/22 09:18:42;;;;;;;3.15;1.20;;;;;;;19.93;38.66;99788.69;4623164;31;20074;-57
2023/12/22 09:21:10;;;;;;;2.25;1.02;;;;;;;19.93;38.11;99786.00;4624386;31;20083;-57
2023/12/22 09:23:37;;;;;;;2.40;1.17;;;;;;;19.93;37.80;99797.59;4624623;31;20051;-58
2023/12/22 09:26:05;;;;;;;2.33;1.00;;;;;;;19.93;37.16;99797.59;4623140;31;20047;-59
2023/12/22 09:28:32;;;;;;;2.00;1.00;;;;;;;19.93;35.77;99805.66;4635333;30;20512;-65
2023/12/22 09:31:00;;;;;;;1.73;0.95;;;;;;;19.93;35.14;99819.09;4624413;31;20390;-65
2023/12/22 09:33:27;;;;;;;1.83;0.68;;;;;;;19.93;35.12;99827.16;4624657;31;20068;-65
2023/12/22 09:35:55;;;;;;;3.17;0.88;;;;;;;19.92;34.94;99822.75;4622909;31;20052;-65
2023/12/22 09:38:23;;;;;;;2.60;0.85;;;;;;;19.93;34.59;99829.84;4635384;30;20551;-65
2023/12/22 09:40:51;;;;;;;2.40;0.70;;;;;;;19.95;33.01;99816.25;4623708;31;20067;-65
2023/12/22 09:43:20;;;;;;;3.03;0.80;;;;;;;19.99;31.44;99829.19;4624034;31;20055;-62
2023/12/22 09:45:49;;;;;;;2.05;0.80;;;;;;;19.96;31.16;99829.50;4622993;31;20063;-66
2023/12/22 09:48:27;;;;;;;1.75;0.63;;;;;;;19.95;31.88;99825.13;4622995;31;20056;-65
2023/12/22 09:50:55;;;;;;;2.60;0.80;;;;;;;19.96;31.41;99823.28;4625544;31;20400;-66
2023/12/22 09:53:24;;;;;;;3.40;0.65;;;;;;;19.95;31.93;99832.34;4622872;31;20071;-64
2023/12/22 09:55:53;;;;;;;2.38;0.80;;;;;;;19.96;31.76;99817.91;4622904;31;20052;-64
2023/12/22 09:58:22;;;;;;;1.88;0.60;;;;;;;19.97;30.41;99817.78;4623085;31;20051;-59
2023/12/22 10:00:53;;;;;;;1.73;0.63;;;;;;;19.95;31.26;99814.38;4617228;31;20059;-58
2023/12/22 10:03:22;;;;;;;2.90;0.80;;;;;;;19.96;30.64;99796.41;4623259;31;20067;-59
2023/12/22 10:05:51;;;;;;;2.03;0.50;;;;;;;19.96;30.45;99796.41;4616730;31;20052;-59
2023/12/22 10:08:20;;;;;;;2.00;0.60;;;;;;;19.94;31.12;99798.44;4623543;31;20100;-65
2023/12/22 10:10:52;;;;;;;2.38;0.40;;;;;;;19.96;30.91;99785.69;4621577;31;20103;-64
2023/12/22 10:13:20;;;;;;;2.70;0.70;;;;;;;19.94;30.98;99782.31;4620128;31;20056;-64
2023/12/22 10:15:48;;;;;;;1.48;0.68;;;;;;;19.93;31.09;99786.00;4619893;31;20060;-64
2023/12/22 10:18:16;;;;;;;1.30;0.30;;;;;;;19.92;31.73;99784.31;4621512;31;20426;-65
2023/12/22 10:20:44;;;;;;;3.20;0.40;;;;;;;19.90;32.18;99776.44;4620696;31;20051;-64
2023/12/22 10:23:12;;;;;;;0.93;0.40;;;;;;;19.89;32.59;99776.56;4619547;31;20519;-59
2023/12/22 10:25:41;;;;;;;2.25;0.50;;;;;;;19.88;32.71;99773.03;4619733;31;20059;-59
2023/12/22 10:28:11;;;;;;;2.55;0.70;;;;;;;19.88;32.81;99782.94;4621784;31;20066;-59
2023/12/22 10:30:40;;;;;;;1.42;0.50;;;;;;;19.87;32.82;99775.91;4619907;31;20055;-58
2023/12/22 10:33:08;;;;;;;1.48;0.60;;;;;;;19.86;32.88;99777.75;4619350;31;20055;-59
2023/12/22 10:35:35;;;;;;;1.35;0.47;;;;;;;19.86;32.90;99771.53;4619843;31;20398;-58
2023/12/22 10:38:04;;;;;;;2.75;0.50;;;;;;;19.86;32.97;99784.97;4622326;31;20059;-62
2023/12/22 10:40:31;;;;;;;1.65;0.55;;;;;;;19.86;33.06;99780.44;4615194;31;20059;-62
2023/12/22 10:43:00;;;;;;;1.45;0.55;;;;;;;19.85;32.94;99777.91;4619381;31;20056;-62
2023/12/22 10:45:30;;;;;;;1.20;0.60;;;;;;;19.85;32.97;99784.13;4619697;31;20396;-65
2023/12/22 10:47:59;;;;;;;1.70;0.32;;;;;;;19.85;32.96;99764.47;4622791;31;20058;-59
2023/12/22 10:50:28;;;;;;;1.25;0.55;;;;;;;19.86;33.00;99771.53;4619668;31;20063;-58
2023/12/22 10:52:55;;;;;;;1.65;0.55;;;;;;;19.87;33.34;99765.16;4631589;30;20071;-59
2023/12/22 10:55:23;;;;;;;1.25;0.43;;;;;;;19.85;33.29;99765.34;4632294;30;20539;-58
2023/12/22 10:57:50;;;;;;;1.98;0.60;;;;;;;19.84;33.34;99770.84;4621197;31;20052;-65
2023/12/22 11:00:20;;;;;;;2.15;0.60;;;;;;;19.85;33.38;99768.03;4619424;31;20063;-65
2023/12/22 11:02:48;;;;;;;1.60;0.55;;;;;;;19.85;33.31;99756.41;4619155;31;20060;-65
2023/12/22 11:05:20;;;;;;;1.80;0.60;;;;;;;19.85;33.37;99753.72;4619251;31;20428;-65
2023/12/22 11:07:49;;;;;;;1.67;0.70;;;;;;;19.85;33.63;99753.72;4620901;31;20051;-58
2023/12/22 11:10:21;;;;;;;3.72;0.80;;;;;;;19.85;33.53;99751.03;4618703;31;20112;-59
2023/12/22 11:12:51;;;;;;;1.35;0.45;;;;;;;19.85;33.42;99756.41;4618987;31;20116;-58
2023/12/22 11:15:19;;;;;;;1.38;0.40;;;;;;;19.84;33.25;99760.09;4633026;30;20060;-58
2023/12/22 11:17:48;;;;;;;2.35;0.70;;;;;;;19.85;33.48;99745.66;4619593;31;20071;-58
2023/12/22 11:20:18;;;;;;;1.52;0.85;;;;;;;19.84;33.55;99746.69;4618291;31;20060;-58
2023/12/22 11:22:50;;;;;;;2.28;0.50;;;;;;;19.84;33.28;99744.00;4618940;31;20055;-60
2023/12/22 11:25:19;;;;;;;1.48;0.60;;;;;;;19.84;33.39;99744.00;4614295;31;20070;-59
2023/12/22 11:27:48;;;;;;;1.33;0.55;;;;;;;19.85;33.32;99734.91;4614895;31;20058;-59
2023/12/22 11:30:18;;;;;;;2.70;0.73;;;;;;;19.84;33.05;99728.72;4618614;31;20198;-60
2023/12/22 11:32:47;;;;;;;0.95;0.30;;;;;;;19.84;32.90;99730.56;4618838;31;20077;-59